Terminal Aerodrome Forecast
Issued by NWS

Home | Current Version | Previous Version | Text Only | Print | Product List | Glossary On
Versions: 1 2 3 4 5 6 7 8 9 10 11 12 13 14 15 16 17
000
FTUS43 KGRB 280520
TAFATW
TAF
KATW 280520Z 2806/2906 25010KT P6SM VCSH BKN015 OVC025
     FM280800 25007KT P6SM OVC025
     FM281200 25007KT P6SM SCT030
     FM281700 23012KT P6SM SCT035 SCT100
     FM282200 31006KT P6SM SCT040 BKN100
     FM290300 36009KT P6SM VCSH SCT035 OVC070=

USA.gov is the U.S. government's official web portal to all federal, state and local government web resources and services.